createdAt,value
2019-05-03T00:02:26.554Z,85.40
2019-05-03T00:05:22.067Z,85.10
2019-05-03T00:07:52.732Z,84.70
2019-05-03T00:10:22.341Z,84.30
2019-05-03T00:12:52.795Z,82.70
2019-05-03T00:15:28.763Z,82.20
2019-05-03T00:17:57.816Z,79.10
2019-05-03T00:20:27.299Z,77.00
2019-05-03T00:22:56.167Z,76.40
2019-05-03T00:25:24.995Z,74.10
2019-05-03T00:27:53.804Z,75.00
2019-05-03T00:30:22.718Z,73.50
2019-05-03T00:32:52.174Z,72.80
2019-05-03T00:35:58.467Z,73.20
2019-05-03T00:38:27.512Z,72.70
2019-05-03T00:40:56.684Z,73.50
2019-05-03T00:43:25.525Z,73.70
2019-05-03T00:45:54.590Z,72.30
2019-05-03T00:48:23.573Z,73.20
2019-05-03T00:50:52.359Z,74.00
2019-05-03T00:53:22.426Z,77.20
2019-05-03T00:55:52.518Z,76.60
2019-05-03T00:58:22.410Z,77.80
2019-05-03T01:00:52.508Z,77.90
2019-05-03T01:03:22.004Z,79.10
2019-05-03T01:05:52.724Z,77.90
2019-05-03T01:08:21.995Z,78.80
2019-05-03T01:10:51.666Z,80.30
2019-05-03T01:13:21.810Z,79.50
2019-05-03T01:16:02.941Z,79.90
2019-05-03T01:18:32.464Z,79.70
2019-05-03T01:21:02.285Z,78.90
2019-05-03T01:23:32.582Z,80.30
2019-05-03T01:26:02.477Z,80.00
2019-05-03T01:28:32.323Z,80.60
2019-05-03T01:31:02.601Z,81.00
2019-05-03T01:33:32.132Z,80.50
2019-05-03T01:36:02.714Z,81.00
2019-05-03T01:38:32.132Z,81.20
2019-05-03T01:41:01.740Z,80.60
2019-05-03T01:43:31.792Z,81.10
2019-05-03T01:46:02.706Z,81.00
2019-05-03T01:48:53.717Z,81.90
2019-05-03T01:51:42.041Z,80.30
2019-05-03T01:54:12.277Z,83.20
2019-05-03T01:56:49.978Z,83.20
2019-05-03T01:59:12.304Z,83.60
2019-05-03T02:01:48.599Z,82.50
2019-05-03T02:04:28.024Z,83.70
2019-05-03T02:06:56.824Z,83.70
2019-05-03T02:09:25.577Z,83.30
2019-05-03T02:11:54.471Z,83.90
2019-05-03T02:14:23.348Z,83.90
2019-05-03T02:16:52.355Z,83.30
2019-05-03T02:19:22.002Z,84.20
2019-05-03T02:21:52.357Z,83.50
2019-05-03T02:24:22.097Z,84.70
2019-05-03T02:26:52.827Z,84.60
2019-05-03T02:29:21.965Z,84.50
2019-05-03T02:31:53.456Z,85.70
2019-05-03T02:34:23.931Z,82.70
2019-05-03T02:36:53.761Z,81.80
2019-05-03T02:39:23.129Z,83.50
2019-05-03T02:41:58.712Z,84.30
2019-05-03T02:44:26.566Z,84.40
2019-05-03T02:47:15.886Z,80.30
2019-05-03T02:49:49.283Z,78.90
2019-05-03T02:52:37.569Z,73.90
2019-05-03T02:55:08.612Z,72.50
2019-05-03T02:57:37.778Z,73.10
2019-05-03T03:00:10.080Z,75.70
2019-05-03T03:02:40.141Z,75.70
2019-05-03T03:05:09.872Z,75.60
2019-05-03T03:07:40.266Z,75.90
2019-05-03T03:10:09.770Z,76.80
2019-05-03T03:12:41.826Z,77.90
2019-05-03T03:15:11.054Z,78.30
2019-05-03T03:17:45.580Z,80.00
2019-05-03T03:20:16.097Z,82.20
2019-05-03T03:22:45.678Z,83.60
2019-05-03T03:25:19.844Z,85.30
2019-05-03T03:27:50.763Z,84.90
2019-05-03T03:30:39.155Z,86.10
2019-05-03T03:33:11.164Z,86.70
2019-05-03T03:35:41.145Z,86.50
2019-05-03T03:38:10.319Z,87.20
2019-05-03T03:40:40.031Z,83.40
2019-05-03T03:43:10.463Z,75.90
2019-05-03T03:45:40.802Z,70.50
2019-05-03T03:48:11.221Z,71.10
2019-05-03T03:50:41.766Z,68.00
2019-05-03T03:53:12.130Z,67.30
2019-05-03T03:55:45.624Z,64.80
2019-05-03T03:58:17.651Z,64.20
2019-05-03T04:00:46.350Z,65.00
2019-05-03T04:03:15.864Z,65.10
2019-05-03T04:05:46.796Z,64.90
2019-05-03T04:08:16.357Z,64.70
2019-05-03T04:10:46.356Z,65.40
2019-05-03T04:13:17.842Z,65.90
2019-05-03T04:16:05.372Z,68.70
2019-05-03T04:18:45.888Z,68.30
2019-05-03T04:21:16.228Z,72.20
2019-05-03T04:23:45.916Z,75.10
2019-05-03T04:26:16.267Z,77.00
2019-05-03T04:28:45.501Z,79.00
2019-05-03T04:31:15.214Z,80.10
2019-05-03T04:33:45.091Z,84.10
2019-05-03T04:36:15.894Z,85.40
2019-05-03T04:38:45.342Z,86.50
2019-05-03T04:41:15.851Z,88.60
2019-05-03T04:43:45.998Z,89.00
2019-05-03T04:46:21.585Z,89.50
2019-05-03T04:48:50.360Z,91.20
2019-05-03T04:51:19.260Z,92.00
2019-05-03T04:54:16.137Z,92.50
2019-05-03T04:56:46.193Z,93.60
2019-05-03T04:59:15.901Z,94.20
2019-05-03T05:01:46.125Z,94.00
2019-05-03T05:04:16.139Z,94.70
2019-05-03T05:06:45.166Z,93.10
2019-05-03T05:09:15.613Z,94.20
2019-05-03T05:11:45.923Z,93.80
2019-05-03T05:14:15.498Z,96.00
2019-05-03T05:16:46.490Z,96.60
2019-05-03T05:19:18.584Z,94.70
2019-05-03T05:21:51.418Z,93.40
2019-05-03T05:24:20.263Z,93.20
2019-05-03T05:26:58.072Z,93.70
2019-05-03T05:29:29.355Z,94.10
2019-05-03T05:31:58.386Z,93.10
2019-05-03T05:34:27.411Z,93.50
2019-05-03T05:36:56.505Z,93.50
2019-05-03T05:39:25.582Z,92.80
2019-05-03T05:41:55.415Z,92.10
2019-05-03T05:44:24.741Z,89.70
2019-05-03T05:47:15.867Z,91.30
2019-05-03T05:49:51.789Z,88.40
2019-05-03T05:52:20.635Z,87.20
2019-05-03T05:54:57.039Z,89.00
2019-05-03T05:57:36.032Z,88.10
2019-05-03T06:00:10.284Z,90.00
2019-05-03T06:02:39.149Z,90.60
2019-05-03T06:05:08.287Z,91.30
2019-05-03T06:07:56.193Z,90.30
2019-05-03T06:10:30.445Z,90.90
2019-05-03T06:13:07.927Z,93.10
2019-05-03T06:15:46.564Z,92.60
2019-05-03T06:18:20.423Z,90.10
2019-05-03T06:20:59.929Z,88.10
2019-05-03T06:23:36.748Z,86.60
2019-05-03T06:26:25.390Z,86.40
2019-05-03T06:28:54.505Z,87.20
2019-05-03T06:31:34.397Z,88.60
2019-05-03T06:34:04.545Z,88.80
2019-05-03T06:36:35.333Z,90.30
2019-05-03T06:39:08.324Z,85.90
2019-05-03T06:41:36.399Z,87.50
2019-05-03T06:44:05.361Z,86.70
2019-05-03T06:46:45.513Z,87.60
2019-05-03T06:49:15.234Z,84.50
2019-05-03T06:51:45.589Z,77.90
2019-05-03T06:54:15.713Z,80.20
2019-05-03T06:56:45.231Z,79.70
2019-05-03T06:59:24.811Z,74.00
2019-05-03T07:02:19.639Z,68.70
2019-05-03T07:04:50.196Z,70.40
2019-05-03T07:07:40.832Z,73.50
2019-05-03T07:10:15.011Z,72.20
2019-05-03T07:12:59.214Z,73.40
2019-05-03T07:15:28.273Z,70.90
2019-05-03T07:17:57.368Z,72.50
2019-05-03T07:20:26.536Z,74.80
2019-05-03T07:22:56.151Z,72.30
2019-05-03T07:25:25.830Z,71.40
2019-05-03T07:27:55.515Z,65.30
2019-05-03T07:30:25.021Z,63.90
2019-05-03T07:33:01.649Z,61.40
2019-05-03T07:35:30.473Z,61.20
2019-05-03T07:37:59.247Z,62.90
2019-05-03T07:40:28.103Z,65.80
2019-05-03T07:42:56.884Z,66.10
2019-05-03T07:45:26.177Z,64.40
2019-05-03T07:47:55.861Z,60.70
2019-05-03T07:50:25.926Z,62.30
2019-05-03T07:52:55.779Z,60.90
2019-05-03T07:55:45.729Z,63.60
2019-05-03T07:58:17.810Z,61.00
2019-05-03T08:00:47.911Z,57.70
2019-05-03T08:03:16.701Z,60.40
2019-05-03T08:05:45.643Z,54.40
2019-05-03T08:08:14.933Z,55.00
2019-05-03T08:10:44.919Z,57.50
2019-05-03T08:13:15.031Z,54.60
2019-05-03T08:15:45.244Z,54.70
2019-05-03T08:18:15.387Z,57.20
2019-05-03T08:20:45.133Z,54.40
2019-05-03T08:23:26.409Z,52.10
2019-05-03T08:25:44.992Z,52.20
2019-05-03T08:28:14.564Z,47.40
2019-05-03T08:30:57.571Z,44.40
2019-05-03T08:33:44.843Z,46.60
2019-05-03T08:36:15.681Z,48.10
2019-05-03T08:38:45.216Z,41.60
2019-05-03T08:41:16.682Z,38.70
2019-05-03T08:43:45.678Z,42.60
2019-05-03T08:46:14.916Z,40.40
2019-05-03T08:48:45.488Z,37.20
2019-05-03T08:51:14.856Z,39.50
2019-05-03T08:53:45.883Z,42.20
2019-05-03T08:56:15.707Z,35.50
2019-05-03T08:58:45.070Z,34.50
2019-05-03T09:01:14.954Z,31.60
2019-05-03T09:03:45.627Z,30.10
2019-05-03T09:06:15.454Z,31.60
2019-05-03T09:08:45.796Z,25.60
2019-05-03T09:11:15.895Z,29.50
2019-05-03T09:13:56.490Z,25.60
2019-05-03T09:16:25.351Z,25.80
2019-05-03T09:18:54.901Z,21.80
2019-05-03T09:21:25.558Z,28.20
2019-05-03T09:23:55.347Z,29.70
2019-05-03T09:26:28.995Z,24.10
2019-05-03T09:28:55.742Z,29.00
2019-05-03T09:31:24.965Z,29.40
2019-05-03T09:33:54.828Z,26.00
2019-05-03T09:36:25.410Z,25.50
2019-05-03T09:38:54.858Z,26.40
2019-05-03T09:41:25.687Z,27.80
2019-05-03T09:43:55.414Z,25.10
2019-05-03T09:46:26.385Z,27.40
2019-05-03T09:49:03.602Z,21.30
2019-05-03T09:51:25.735Z,25.60
2019-05-03T09:53:59.535Z,19.50
2019-05-03T09:56:55.388Z,19.80
2019-05-03T09:59:16.766Z,15.20
2019-05-03T10:01:45.784Z,15.20
2019-05-03T10:04:17.787Z,14.00
2019-05-03T10:06:45.344Z,14.50
2019-05-03T10:09:15.400Z,13.80
2019-05-03T10:11:45.890Z,10.90
2019-05-03T10:14:15.656Z,12.30
2019-05-03T10:16:52.188Z,14.00
2019-05-03T10:19:34.856Z,15.20
2019-05-03T10:21:53.635Z,16.70
2019-05-03T10:24:22.394Z,11.40
2019-05-03T10:26:51.223Z,8.90
2019-05-03T10:29:20.284Z,7.70
2019-05-03T10:31:56.868Z,4.30
2019-05-03T10:34:35.817Z,5.40
2019-05-03T10:37:06.591Z,4.90
2019-05-03T10:39:36.200Z,3.40
2019-05-03T10:42:05.544Z,3.00
2019-05-03T10:44:35.763Z,2.70
2019-05-03T10:47:05.631Z,7.10
2019-05-03T10:49:35.160Z,7.60
2019-05-03T10:52:05.854Z,10.70
2019-05-03T10:54:35.758Z,9.00
2019-05-03T10:57:17.335Z,9.80
2019-05-03T10:59:46.339Z,7.90
2019-05-03T11:02:31.010Z,9.10
2019-05-03T11:04:59.818Z,8.90
2019-05-03T11:07:28.674Z,7.20
2019-05-03T11:09:57.519Z,7.30
2019-05-03T11:12:27.201Z,7.20
2019-05-03T11:14:56.350Z,10.50
2019-05-03T11:17:25.658Z,9.00
2019-05-03T11:19:54.778Z,8.40
2019-05-03T11:22:25.258Z,8.30
2019-05-03T11:24:54.618Z,10.00
2019-05-03T11:27:32.780Z,10.80
2019-05-03T11:30:01.792Z,9.80
2019-05-03T11:32:45.710Z,7.60
2019-05-03T11:35:36.458Z,11.30
2019-05-03T11:38:18.269Z,7.80
2019-05-03T11:40:47.151Z,10.20
2019-05-03T11:43:17.462Z,8.20
2019-05-03T11:45:46.249Z,9.30
2019-05-03T11:48:15.011Z,10.70
2019-05-03T11:50:45.295Z,5.80
2019-05-03T11:53:14.657Z,7.80
2019-05-03T11:55:46.287Z,7.60
2019-05-03T11:58:21.899Z,4.70
2019-05-03T12:01:15.987Z,3.60
2019-05-03T12:03:42.114Z,3.80
2019-05-03T12:06:10.920Z,6.40
2019-05-03T12:08:39.655Z,1.70
2019-05-03T12:11:08.959Z,1.70
2019-05-03T12:13:37.820Z,4.30
2019-05-03T12:16:17.016Z,3.60
2019-05-03T12:18:49.146Z,2.10
2019-05-03T12:21:09.612Z,1.00
2019-05-03T12:23:38.963Z,3.40
2019-05-03T12:26:12.803Z,1.40
2019-05-03T12:28:57.932Z,1.00
2019-05-03T12:31:36.668Z,2.20
2019-05-03T12:33:57.260Z,1.00
2019-05-03T12:36:26.283Z,1.00
2019-05-03T12:38:55.098Z,1.00
2019-05-03T12:41:25.480Z,1.70
2019-05-03T12:43:55.209Z,2.20
2019-05-03T12:46:26.060Z,3.10
2019-05-03T12:48:54.589Z,3.10
2019-05-03T12:51:25.116Z,1.10
2019-05-03T12:53:55.228Z,2.10
2019-05-03T12:56:32.070Z,3.00
2019-05-03T12:59:05.572Z,1.70
2019-05-03T13:01:45.508Z,1.00
2019-05-03T13:04:18.143Z,1.00
2019-05-03T13:06:51.897Z,1.00
2019-05-03T13:09:20.954Z,1.00
2019-05-03T13:11:55.506Z,1.80
2019-05-03T13:14:24.845Z,1.00
2019-05-03T13:17:07.675Z,1.00
2019-05-03T13:19:36.433Z,1.00
2019-05-03T13:22:05.754Z,1.00
2019-05-03T13:24:34.850Z,1.00
2019-05-03T13:27:05.568Z,1.00
2019-05-03T13:29:34.832Z,1.00
2019-05-03T13:32:05.578Z,1.00
2019-05-03T13:34:35.379Z,1.00
2019-05-03T13:37:04.476Z,1.00
2019-05-03T13:39:35.684Z,1.00
2019-05-03T13:42:05.683Z,1.00
2019-05-03T13:44:35.590Z,1.00
2019-05-03T13:47:04.646Z,1.00
2019-05-03T13:49:35.218Z,1.00
2019-05-03T13:52:05.322Z,1.00
2019-05-03T13:54:35.040Z,1.00
2019-05-03T13:57:04.956Z,1.00
2019-05-03T13:59:34.727Z,1.00
2019-05-03T14:02:14.428Z,1.00
2019-05-03T14:04:48.710Z,1.00
2019-05-03T14:07:05.137Z,1.00
2019-05-03T14:09:34.778Z,1.00
2019-05-03T14:12:05.603Z,1.00
2019-05-03T14:14:55.822Z,1.00
2019-05-03T14:17:26.622Z,1.00
2019-05-03T14:20:02.600Z,1.00
2019-05-03T14:22:35.611Z,1.00
2019-05-03T14:25:04.611Z,1.00
2019-05-03T14:27:34.812Z,1.00
2019-05-03T14:30:05.438Z,1.00
2019-05-03T14:32:35.895Z,1.00
2019-05-03T14:35:05.221Z,1.00
2019-05-03T14:37:34.963Z,1.00
2019-05-03T14:40:05.187Z,1.00
2019-05-03T14:42:34.353Z,1.00
2019-05-03T14:45:04.545Z,1.00
2019-05-03T14:47:33.725Z,1.00
2019-05-03T14:50:02.753Z,1.00
2019-05-03T14:52:31.663Z,1.00
2019-05-03T14:55:07.345Z,1.00
2019-05-03T14:57:39.917Z,1.00
2019-05-03T15:00:25.484Z,1.00
2019-05-03T15:02:58.172Z,1.00
2019-05-03T15:05:27.368Z,1.60
2019-05-03T15:07:56.452Z,1.00
2019-05-03T15:10:25.444Z,1.00
2019-05-03T15:12:55.665Z,1.00
2019-05-03T15:15:25.126Z,1.00
2019-05-03T15:17:55.044Z,1.00
2019-05-03T15:20:25.566Z,1.00
2019-05-03T15:22:54.875Z,1.00
2019-05-03T15:25:25.060Z,1.00
2019-05-03T15:27:55.409Z,1.00
2019-05-03T15:30:25.564Z,1.00
2019-05-03T15:33:00.200Z,1.00
2019-05-03T15:35:25.885Z,1.00
2019-05-03T15:37:55.810Z,1.00
2019-05-03T15:40:25.130Z,1.00
2019-05-03T15:43:02.839Z,1.00
2019-05-03T15:45:46.581Z,1.00
2019-05-03T15:48:21.311Z,1.00
2019-05-03T15:50:50.240Z,1.00
2019-05-03T15:53:19.157Z,1.00
2019-05-03T15:55:48.205Z,1.10
2019-05-03T15:58:16.993Z,1.00
2019-05-03T16:00:46.437Z,1.00
2019-05-03T16:03:15.476Z,1.00
2019-05-03T16:05:44.806Z,1.00
2019-05-03T16:08:15.365Z,1.00
2019-05-03T16:10:45.692Z,1.00
2019-05-03T16:13:14.864Z,1.00
2019-05-03T16:15:44.537Z,1.00
2019-05-03T16:18:14.827Z,1.00
2019-05-03T16:20:46.567Z,1.10
2019-05-03T16:23:15.539Z,1.00
2019-05-03T16:25:44.881Z,1.00
2019-05-03T16:28:20.494Z,1.00
2019-05-03T16:30:55.539Z,1.00
2019-05-03T16:33:27.897Z,1.00
2019-05-03T16:35:56.922Z,1.20
2019-05-03T16:38:27.848Z,1.00
2019-05-03T16:40:57.044Z,1.00
2019-05-03T16:43:26.029Z,1.70
2019-05-03T16:45:55.279Z,2.50
2019-05-03T16:48:26.139Z,2.50
2019-05-03T16:51:01.403Z,3.20
2019-05-03T16:53:31.453Z,1.70
2019-05-03T16:56:11.471Z,1.50
2019-05-03T16:58:44.469Z,1.60
2019-05-03T17:01:18.278Z,2.80
2019-05-03T17:03:52.167Z,3.70
2019-05-03T17:06:46.269Z,4.90
2019-05-03T17:09:41.547Z,2.90
2019-05-03T17:12:14.927Z,4.60
2019-05-03T17:14:43.554Z,3.90
2019-05-03T17:17:14.749Z,4.70
2019-05-03T17:19:44.720Z,6.10
2019-05-03T17:22:14.845Z,6.00
2019-05-03T17:24:44.623Z,5.20
2019-05-03T17:27:13.420Z,6.60
2019-05-03T17:29:45.715Z,6.30
2019-05-03T17:32:15.407Z,4.70
2019-05-03T17:34:45.309Z,7.40
2019-05-03T17:37:14.297Z,7.70
2019-05-03T17:40:20.597Z,7.00
2019-05-03T17:43:05.039Z,6.10
2019-05-03T17:45:38.068Z,7.10
2019-05-03T17:48:06.988Z,7.90
2019-05-03T17:50:35.839Z,7.90
2019-05-03T17:53:25.326Z,8.30
2019-05-03T17:56:04.857Z,6.80
2019-05-03T17:58:44.230Z,11.00
2019-05-03T18:01:50.194Z,7.90
2019-05-03T18:04:56.662Z,8.80
2019-05-03T18:07:36.176Z,9.70
2019-05-03T18:10:06.028Z,10.60
2019-05-03T18:12:35.076Z,10.90
2019-05-03T18:15:05.707Z,12.40
2019-05-03T18:17:35.254Z,15.70
2019-05-03T18:20:04.628Z,12.80
2019-05-03T18:22:33.475Z,14.70
2019-05-03T18:25:02.812Z,16.10
2019-05-03T18:27:31.665Z,16.40
2019-05-03T18:30:00.528Z,15.40
2019-05-03T18:32:29.366Z,16.80
2019-05-03T18:34:58.353Z,17.60
2019-05-03T18:37:27.304Z,17.70
2019-05-03T18:39:56.117Z,17.80
2019-05-03T18:42:31.414Z,17.60
2019-05-03T18:45:04.495Z,19.70
2019-05-03T18:47:34.381Z,21.20
2019-05-03T18:50:04.346Z,22.10
2019-05-03T18:52:34.474Z,21.50
2019-05-03T18:55:04.417Z,21.90
2019-05-03T18:57:33.597Z,22.90
2019-05-03T19:00:02.439Z,27.40
2019-05-03T19:02:31.282Z,27.60
2019-05-03T19:05:00.045Z,26.90
2019-05-03T19:07:54.635Z,28.70
2019-05-03T19:10:49.045Z,26.40
2019-05-03T19:13:26.446Z,26.10
2019-05-03T19:15:55.731Z,23.50
2019-05-03T19:18:35.839Z,27.10
2019-05-03T19:21:04.727Z,23.10
2019-05-03T19:23:35.336Z,25.60
2019-05-03T19:26:05.546Z,25.30
2019-05-03T19:28:35.403Z,25.10
2019-05-03T19:31:05.419Z,23.40
2019-05-03T19:33:34.753Z,23.00
2019-05-03T19:36:05.233Z,25.20
2019-05-03T19:38:35.126Z,30.60
2019-05-03T19:41:04.155Z,34.00
2019-05-03T19:43:35.383Z,36.40
2019-05-03T19:46:04.633Z,35.80
2019-05-03T19:48:34.847Z,34.70
2019-05-03T19:51:05.752Z,37.60
2019-05-03T19:53:55.173Z,40.40
2019-05-03T19:56:25.664Z,39.70
2019-05-03T19:58:59.446Z,37.60
2019-05-03T20:01:46.502Z,38.30
2019-05-03T20:04:37.467Z,40.70
2019-05-03T20:07:20.830Z,39.70
2019-05-03T20:09:49.975Z,41.80
2019-05-03T20:12:18.872Z,42.90
2019-05-03T20:14:48.535Z,41.90
2019-05-03T20:17:17.350Z,40.90
2019-05-03T20:19:46.552Z,42.40
2019-05-03T20:22:17.621Z,43.60
2019-05-03T20:24:46.815Z,43.80
2019-05-03T20:27:15.707Z,41.90
2019-05-03T20:29:46.280Z,44.60
2019-05-03T20:32:15.909Z,45.50
2019-05-03T20:34:45.390Z,43.80
2019-05-03T20:37:14.775Z,45.80
2019-05-03T20:39:43.857Z,47.60
2019-05-03T20:42:15.425Z,48.80
2019-05-03T20:44:57.894Z,51.20
2019-05-03T20:47:30.827Z,50.70
2019-05-03T20:50:15.482Z,52.10
2019-05-03T20:52:44.799Z,53.90
2019-05-03T20:55:15.505Z,54.80
2019-05-03T20:57:44.547Z,55.10
2019-05-03T21:00:15.458Z,55.90
2019-05-03T21:02:51.493Z,55.90
2019-05-03T21:05:26.830Z,56.60
2019-05-03T21:07:45.831Z,55.70
2019-05-03T21:10:15.745Z,57.90
2019-05-03T21:12:44.719Z,57.60
2019-05-03T21:15:24.678Z,58.70
2019-05-03T21:18:04.757Z,59.70
2019-05-03T21:20:57.119Z,59.70
2019-05-03T21:23:27.148Z,60.80
2019-05-03T21:26:12.584Z,61.20
2019-05-03T21:28:36.368Z,60.10
2019-05-03T21:31:05.743Z,59.80
2019-05-03T21:33:35.523Z,61.30
2019-05-03T21:36:04.792Z,61.30
2019-05-03T21:38:35.423Z,61.30
2019-05-03T21:41:05.159Z,60.00
2019-05-03T21:43:34.784Z,59.60
2019-05-03T21:46:17.895Z,60.40
2019-05-03T21:48:57.637Z,62.50
2019-05-03T21:51:26.820Z,61.30
2019-05-03T21:53:55.787Z,61.10
2019-05-03T21:56:25.084Z,59.30
2019-05-03T21:58:55.286Z,60.00
2019-05-03T22:01:25.916Z,58.80
2019-05-03T22:03:55.253Z,58.30
2019-05-03T22:06:24.759Z,57.10
2019-05-03T22:08:55.435Z,57.00
2019-05-03T22:11:25.270Z,56.20
2019-05-03T22:13:57.035Z,57.90
2019-05-03T22:16:51.240Z,57.60
2019-05-03T22:19:20.189Z,56.70
2019-05-03T22:21:57.872Z,57.90
2019-05-03T22:24:35.044Z,54.90
2019-05-03T22:27:07.663Z,59.00
2019-05-03T22:29:36.678Z,60.10
2019-05-03T22:32:06.247Z,58.30
2019-05-03T22:34:35.754Z,58.60
2019-05-03T22:37:05.033Z,58.60
2019-05-03T22:39:33.983Z,56.20
2019-05-03T22:42:04.531Z,56.30
2019-05-03T22:44:35.468Z,61.00
2019-05-03T22:47:05.495Z,60.00
2019-05-03T22:49:36.988Z,60.70
2019-05-03T22:52:05.484Z,57.10
2019-05-03T22:54:34.733Z,56.40
2019-05-03T22:57:15.297Z,54.50
2019-05-03T22:59:44.890Z,56.00
2019-05-03T23:02:16.831Z,57.40
2019-05-03T23:04:44.978Z,62.10
2019-05-03T23:07:14.825Z,59.50
2019-05-03T23:09:44.612Z,61.40
2019-05-03T23:12:13.682Z,62.50
2019-05-03T23:14:44.618Z,63.10
2019-05-03T23:17:15.060Z,58.60
2019-05-03T23:19:46.007Z,59.00
2019-05-03T23:22:35.266Z,54.50
2019-05-03T23:25:05.212Z,58.90
2019-05-03T23:27:35.347Z,59.70
2019-05-03T23:30:04.999Z,61.00
2019-05-03T23:32:35.230Z,56.60
2019-05-03T23:35:04.982Z,56.60
2019-05-03T23:37:34.725Z,58.20
2019-05-03T23:40:04.423Z,55.60
2019-05-03T23:42:35.057Z,59.70
2019-05-03T23:45:04.820Z,58.80
2019-05-03T23:47:38.335Z,59.20
2019-05-03T23:50:11.114Z,58.60
2019-05-03T23:52:39.928Z,57.60
2019-05-03T23:55:19.642Z,53.10
2019-05-03T23:57:48.562Z,55.90
